Time;durP1;ratioP1;P1;durP2;ratioP2;P2;SDS_P1;SDS_P2;PMS_P1;PMS_P2;Temp;Humidity;BMP_temperature;BMP_pressure;BME280_temperature;BME280_humidity;BME280_pressure;Samples;Min_cycle;Max_cycle;Signal;HPM_P1;HPM_P2
2022/10/17 00:09:05;;;;;;;7.10;2.90;;;;;;;;;;21088393;28;20480;-62
2022/10/17 00:19:07;;;;;;;7.18;2.60;;;;;;;;;;21088003;28;20381;-64
2022/10/17 00:29:09;;;;;;;8.50;2.50;;;;;;;;;;21068683;28;20051;-61
2022/10/17 00:39:10;;;;;;;9.25;2.28;;;;;;;;;;21084086;28;20083;-62
2022/10/17 00:49:12;;;;;;;12.25;3.20;;;;;;;;;;21000426;28;20473;-64
2022/10/17 00:59:15;;;;;;;10.60;3.35;;;;;;;;;;20982768;28;20084;-63
2022/10/17 01:09:16;;;;;;;11.75;3.22;;;;;;;;;;21000217;28;20056;-64
2022/10/17 01:19:31;;;;;;;12.50;2.22;;;;;;;;;;20999588;28;20048;-64
2022/10/17 01:29:36;;;;;;;9.98;3.03;;;;;;;;;;20999354;28;20056;-64
2022/10/17 01:39:43;;;;;;;9.10;2.38;;;;;;;;;;20999031;28;20044;-60
2022/10/17 01:49:48;;;;;;;10.85;2.63;;;;;;;;;;20996861;28;20061;-60
2022/10/17 01:59:52;;;;;;;8.50;2.65;;;;;;;;;;20995859;28;20079;-61
2022/10/17 02:10:12;;;;;;;11.30;3.20;;;;;;;;;;20996696;28;20087;-61
2022/10/17 02:20:21;;;;;;;7.10;3.13;;;;;;;;;;20995338;28;20052;-62
2022/10/17 02:30:41;;;;;;;10.60;3.00;;;;;;;;;;20995185;28;20139;-65
2022/10/17 02:40:49;;;;;;;9.27;3.95;;;;;;;;;;20994232;28;20049;-60
2022/10/17 02:51:09;;;;;;;11.15;4.22;;;;;;;;;;20994352;28;20500;-61
2022/10/17 03:01:13;;;;;;;13.25;4.35;;;;;;;;;;20994236;28;20052;-60
2022/10/17 03:11:15;;;;;;;9.48;3.97;;;;;;;;;;20999655;28;20051;-60
2022/10/17 03:21:16;;;;;;;10.45;4.30;;;;;;;;;;21008291;28;20056;-60
2022/10/17 03:31:20;;;;;;;13.07;4.25;;;;;;;;;;21008105;28;20451;-61
2022/10/17 03:41:23;;;;;;;14.00;3.78;;;;;;;;;;21006491;28;20067;-60
2022/10/17 03:51:36;;;;;;;10.68;3.25;;;;;;;;;;21006547;28;20056;-59
2022/10/17 04:01:39;;;;;;;8.52;3.63;;;;;;;;;;21005558;28;20374;-60
2022/10/17 04:11:43;;;;;;;12.65;3.67;;;;;;;;;;21005442;28;20048;-60
2022/10/17 04:21:47;;;;;;;9.95;3.10;;;;;;;;;;21002687;28;20055;-61
2022/10/17 04:31:57;;;;;;;13.52;3.83;;;;;;;;;;21003247;28;20508;-60
2022/10/17 04:42:00;;;;;;;11.65;3.42;;;;;;;;;;20984634;28;20148;-60
2022/10/17 04:52:11;;;;;;;12.57;3.53;;;;;;;;;;21001381;28;20054;-61
2022/10/17 05:02:14;;;;;;;10.90;3.22;;;;;;;;;;21001701;28;20444;-61
2022/10/17 05:12:17;;;;;;;10.55;2.90;;;;;;;;;;20999838;28;20127;-59
2022/10/17 05:22:19;;;;;;;12.70;2.95;;;;;;;;;;20998791;28;20051;-64
2022/10/17 05:32:32;;;;;;;13.65;3.22;;;;;;;;;;20998068;28;20052;-64
2022/10/17 05:42:34;;;;;;;15.50;5.82;;;;;;;;;;21027039;28;20054;-62
2022/10/17 05:52:37;;;;;;;11.45;3.05;;;;;;;;;;21080466;28;20051;-62
2022/10/17 06:02:40;;;;;;;9.35;2.80;;;;;;;;;;21079721;28;20389;-63
2022/10/17 06:12:43;;;;;;;12.60;2.50;;;;;;;;;;21079650;28;20051;-65
2022/10/17 06:22:46;;;;;;;12.35;3.20;;;;;;;;;;21078984;28;20051;-65
2022/10/17 06:32:49;;;;;;;14.20;4.07;;;;;;;;;;21079585;28;20048;-64
2022/10/17 06:42:51;;;;;;;15.15;3.45;;;;;;;;;;21079701;28;20066;-66
2022/10/17 06:52:53;;;;;;;24.83;4.80;;;;;;;;;;21095383;28;20052;-60
2022/10/17 07:02:55;;;;;;;9.27;3.45;;;;;;;;;;21093306;28;20052;-63
2022/10/17 07:12:57;;;;;;;12.55;3.92;;;;;;;;;;21094204;28;20051;-63
2022/10/17 07:22:59;;;;;;;15.55;3.25;;;;;;;;;;21092807;28;20135;-61
2022/10/17 07:33:03;;;;;;;13.93;4.07;;;;;;;;;;21091905;28;20449;-61
2022/10/17 07:43:06;;;;;;;14.60;3.53;;;;;;;;;;21090086;28;20454;-63
2022/10/17 07:53:08;;;;;;;10.98;2.33;;;;;;;;;;21089939;28;20484;-61
2022/10/17 08:03:10;;;;;;;12.10;3.10;;;;;;;;;;21089425;28;20040;-60
2022/10/17 08:13:13;;;;;;;14.15;3.13;;;;;;;;;;21088423;28;20083;-60
2022/10/17 08:23:16;;;;;;;23.27;5.15;;;;;;;;;;21087910;28;20182;-61
2022/10/17 08:33:19;;;;;;;17.90;3.47;;;;;;;;;;21069954;28;20040;-63
2022/10/17 08:43:28;;;;;;;20.95;4.38;;;;;;;;;;21049258;28;20060;-63
2022/10/17 08:53:30;;;;;;;;;;;;;;;;;;21001703;28;20048;-63
2022/10/17 09:04:01;;;;;;;16.05;4.85;;;;;;;;;;20999544;28;20406;-64
2022/10/17 09:14:06;;;;;;;14.27;3.08;;;;;;;;;;20999066;28;20056;-61
2022/10/17 09:24:12;;;;;;;11.30;3.40;;;;;;;;;;20999418;28;20053;-64
2022/10/17 09:34:16;;;;;;;12.13;3.38;;;;;;;;;;20997606;28;20143;-61
2022/10/17 09:44:18;;;;;;;13.15;3.42;;;;;;;;;;21040906;28;20056;-62
2022/10/17 09:54:23;;;;;;;13.20;3.20;;;;;;;;;;21080089;28;20048;-66
2022/10/17 10:04:27;;;;;;;7.28;2.60;;;;;;;;;;20998370;28;20094;-63
2022/10/17 10:14:33;;;;;;;8.05;2.85;;;;;;;;;;20994208;28;20058;-60
2022/10/17 10:24:35;;;;;;;23.73;3.65;;;;;;;;;;20993537;28;20416;-69
2022/10/17 10:34:49;;;;;;;16.70;3.97;;;;;;;;;;20994915;28;20040;-65
2022/10/17 10:44:52;;;;;;;16.83;3.03;;;;;;;;;;20992850;28;20064;-64
2022/10/17 10:55:03;;;;;;;12.90;3.55;;;;;;;;;;20993746;28;20063;-65
2022/10/17 11:05:05;;;;;;;15.20;3.22;;;;;;;;;;21059241;28;20044;-69
2022/10/17 11:15:14;;;;;;;12.60;2.85;;;;;;;;;;21075887;28;20047;-72
2022/10/17 11:25:19;;;;;;;18.60;3.42;;;;;;;;;;21075292;28;20058;-71
2022/10/17 11:35:21;;;;;;;14.85;2.80;;;;;;;;;;21069098;28;20131;-74
2022/10/17 11:45:26;;;;;;;12.32;3.15;;;;;;;;;;21071387;28;20060;-72
2022/10/17 11:55:29;;;;;;;14.43;3.28;;;;;;;;;;21090291;28;20093;-66
2022/10/17 12:06:00;;;;;;;21.80;6.05;;;;;;;;;;21088869;28;20408;-67
2022/10/17 12:16:20;;;;;;;34.22;4.53;;;;;;;;;;20747300;28;20458;-67
2022/10/17 12:26:26;;;;;;;16.27;3.55;;;;;;;;;;20745170;28;20057;-64
2022/10/17 12:36:28;;;;;;;16.75;3.40;;;;;;;;;;20746431;28;20124;-64
2022/10/17 12:46:43;;;;;;;12.32;2.88;;;;;;;;;;20843338;28;20134;-65
2022/10/17 12:56:47;;;;;;;12.85;2.67;;;;;;;;;;21085783;28;20454;-66
2022/10/17 13:06:53;;;;;;;14.13;3.40;;;;;;;;;;21083659;28;20385;-62
2022/10/17 13:17:02;;;;;;;14.40;3.13;;;;;;;;;;21083389;28;20047;-65
2022/10/17 13:27:05;;;;;;;12.43;2.85;;;;;;;;;;21082325;28;20102;-65
2022/10/17 13:37:10;;;;;;;16.15;3.50;;;;;;;;;;21082450;28;20043;-62
2022/10/17 13:47:23;;;;;;;11.23;2.50;;;;;;;;;;21080472;28;20056;-64
2022/10/17 13:57:27;;;;;;;11.77;3.08;;;;;;;;;;21081309;28;20086;-63
2022/10/17 14:07:34;;;;;;;13.30;2.67;;;;;;;;;;21081448;28;20079;-65
2022/10/17 14:17:39;;;;;;;7.93;2.20;;;;;;;;;;21079313;28;20052;-66
2022/10/17 14:27:56;;;;;;;10.07;3.35;;;;;;;;;;21078396;28;20048;-66
2022/10/17 14:38:01;;;;;;;10.52;2.55;;;;;;;;;;21060582;28;20051;-65
2022/10/17 14:48:08;;;;;;;11.77;3.28;;;;;;;;;;21077863;28;20458;-64
2022/10/17 14:58:17;;;;;;;14.13;2.30;;;;;;;;;;21078321;28;20048;-66
2022/10/17 15:08:20;;;;;;;17.98;2.92;;;;;;;;;;21085129;28;20084;-67
2022/10/17 15:18:22;;;;;;;18.02;3.65;;;;;;;;;;21092896;28;20127;-63
2022/10/17 15:28:26;;;;;;;10.25;2.35;;;;;;;;;;21092447;28;20424;-67
2022/10/17 15:38:28;;;;;;;9.80;2.20;;;;;;;;;;21073027;28;20089;-63
2022/10/17 15:48:31;;;;;;;14.75;2.53;;;;;;;;;;21089946;28;20060;-66
2022/10/17 15:58:37;;;;;;;25.98;4.00;;;;;;;;;;21089768;28;20048;-65
2022/10/17 16:08:39;;;;;;;19.17;3.07;;;;;;;;;;21088394;28;20083;-66
2022/10/17 16:18:41;;;;;;;14.45;3.63;;;;;;;;;;21088095;28;20458;-66
2022/10/17 16:28:44;;;;;;;12.18;2.42;;;;;;;;;;21068515;28;20055;-62
2022/10/17 16:38:47;;;;;;;13.27;2.00;;;;;;;;;;21086936;28;20048;-62
2022/10/17 16:48:49;;;;;;;28.25;10.27;;;;;;;;;;21085042;28;20052;-64
2022/10/17 16:58:51;;;;;;;15.75;3.72;;;;;;;;;;21084736;28;20048;-64
2022/10/17 17:08:53;;;;;;;14.15;4.05;;;;;;;;;;21085045;28;20047;-63
2022/10/17 17:18:56;;;;;;;16.10;4.80;;;;;;;;;;21083189;28;20048;-62
2022/10/17 17:28:59;;;;;;;18.38;5.03;;;;;;;;;;21082073;28;20044;-64
2022/10/17 17:39:04;;;;;;;11.45;3.58;;;;;;;;;;21081823;28;20052;-66
2022/10/17 17:49:06;;;;;;;12.38;4.45;;;;;;;;;;21081176;28;20142;-62
2022/10/17 17:59:10;;;;;;;8.90;3.35;;;;;;;;;;21080329;28;20094;-62
2022/10/17 18:09:12;;;;;;;10.90;3.55;;;;;;;;;;21061880;28;20505;-63
2022/10/17 18:19:14;;;;;;;19.35;3.78;;;;;;;;;;21079033;28;20208;-62
2022/10/17 18:29:16;;;;;;;14.48;3.67;;;;;;;;;;21078950;28;20052;-64
2022/10/17 18:39:18;;;;;;;11.77;2.90;;;;;;;;;;21062704;28;20044;-65
2022/10/17 18:49:24;;;;;;;16.15;4.38;;;;;;;;;;21076905;28;20044;-62
2022/10/17 18:59:26;;;;;;;12.60;4.53;;;;;;;;;;21094441;28;20044;-67
2022/10/17 19:09:28;;;;;;;18.60;7.00;;;;;;;;;;21094713;28;20082;-64
2022/10/17 19:19:30;;;;;;;16.20;5.88;;;;;;;;;;21092842;28;20416;-67
2022/10/17 19:29:32;;;;;;;18.17;4.78;;;;;;;;;;21093518;28;20081;-64
2022/10/17 19:39:34;;;;;;;15.98;4.15;;;;;;;;;;21091483;28;20044;-67
2022/10/17 19:49:36;;;;;;;10.98;4.55;;;;;;;;;;21091654;28;20083;-68
2022/10/17 19:59:38;;;;;;;13.88;3.53;;;;;;;;;;21090613;28;20052;-66
2022/10/17 20:09:40;;;;;;;15.60;3.20;;;;;;;;;;21090485;28;20089;-63
2022/10/17 20:19:42;;;;;;;13.73;4.13;;;;;;;;;;21088853;28;20083;-66
2022/10/17 20:29:44;;;;;;;17.13;4.20;;;;;;;;;;21087718;28;20058;-66
2022/10/17 20:39:46;;;;;;;11.88;3.95;;;;;;;;;;21082887;28;20417;-65
2022/10/17 20:49:48;;;;;;;16.67;3.63;;;;;;;;;;21001634;28;20503;-64
2022/10/17 20:59:50;;;;;;;14.73;3.60;;;;;;;;;;21001250;28;20052;-63
2022/10/17 21:09:52;;;;;;;13.07;3.20;;;;;;;;;;21000743;28;20523;-64
2022/10/17 21:19:54;;;;;;;17.10;4.10;;;;;;;;;;20999815;28;20060;-66
2022/10/17 21:29:57;;;;;;;13.65;3.63;;;;;;;;;;21003429;28;20389;-65
2022/10/17 21:39:59;;;;;;;18.25;3.42;;;;;;;;;;20990491;28;20090;-63
2022/10/17 21:50:01;;;;;;;14.35;3.90;;;;;;;;;;20997711;28;20409;-64
2022/10/17 22:00:04;;;;;;;11.95;3.78;;;;;;;;;;20997572;28;20123;-67
2022/10/17 22:10:07;;;;;;;11.90;3.60;;;;;;;;;;20979066;28;20451;-68
2022/10/17 22:20:09;;;;;;;17.17;3.97;;;;;;;;;;20996140;28;20052;-68
2022/10/17 22:30:12;;;;;;;12.43;4.07;;;;;;;;;;21001624;28;20135;-67
2022/10/17 22:40:13;;;;;;;10.82;3.50;;;;;;;;;;20995584;28;20060;-66
2022/10/17 22:50:15;;;;;;;15.13;4.45;;;;;;;;;;20995886;28;20529;-67
2022/10/17 23:00:18;;;;;;;15.73;5.63;;;;;;;;;;20995083;28;20481;-68
2022/10/17 23:10:21;;;;;;;11.00;4.85;;;;;;;;;;20994091;28;20076;-67
2022/10/17 23:20:28;;;;;;;14.27;4.65;;;;;;;;;;20993658;28;20044;-67
2022/10/17 23:30:32;;;;;;;17.90;3.80;;;;;;;;;;21002729;28;20044;-65
2022/10/17 23:40:36;;;;;;;15.25;4.15;;;;;;;;;;21007563;28;20514;-67
2022/10/17 23:50:38;;;;;;;14.48;4.00;;;;;;;;;;21008168;28;20056;-67
